sensor_id;sensor_type;location;lat;lon;timestamp;pressure;altitude;pressure_sealevel;temperature;humidity
55289;BME280;41154;45.394;5.734;2023-04-27T00:01:14;96981.16;;;9.32;100.00
55289;BME280;41154;45.394;5.734;2023-04-27T00:03:40;96983.66;;;9.39;100.00
55289;BME280;41154;45.394;5.734;2023-04-27T00:06:07;96971.31;;;9.38;100.00
55289;BME280;41154;45.394;5.734;2023-04-27T00:08:34;96986.50;;;9.32;100.00
55289;BME280;41154;45.394;5.734;2023-04-27T00:11:00;96984.56;;;9.44;100.00
55289;BME280;41154;45.394;5.734;2023-04-27T00:13:27;96986.50;;;9.32;100.00
55289;BME280;41154;45.394;5.734;2023-04-27T00:15:53;96975.47;;;9.28;100.00
55289;BME280;41154;45.394;5.734;2023-04-27T00:18:19;96979.03;;;9.17;100.00
55289;BME280;41154;45.394;5.734;2023-04-27T00:20:45;96971.53;;;9.02;100.00
55289;BME280;41154;45.394;5.734;2023-04-27T00:23:11;96967.47;;;8.99;100.00
55289;BME280;41154;45.394;5.734;2023-04-27T00:25:37;96976.16;;;8.90;100.00
55289;BME280;41154;45.394;5.734;2023-04-27T00:28:03;96972.25;;;8.69;100.00
55289;BME280;41154;45.394;5.734;2023-04-27T00:30:30;96975.41;;;8.66;100.00
55289;BME280;41154;45.394;5.734;2023-04-27T00:32:55;96965.09;;;8.57;100.00
55289;BME280;41154;45.394;5.734;2023-04-27T00:35:21;96962.59;;;8.68;100.00
55289;BME280;41154;45.394;5.734;2023-04-27T00:37:47;96972.03;;;8.70;100.00
55289;BME280;41154;45.394;5.734;2023-04-27T00:40:13;96964.34;;;8.74;100.00
55289;BME280;41154;45.394;5.734;2023-04-27T00:42:39;96971.09;;;8.64;100.00
55289;BME280;41154;45.394;5.734;2023-04-27T00:45:05;96972.66;;;8.60;100.00
55289;BME280;41154;45.394;5.734;2023-04-27T00:47:31;96964.97;;;8.52;100.00
55289;BME280;41154;45.394;5.734;2023-04-27T00:49:57;96963.47;;;8.56;100.00
55289;BME280;41154;45.394;5.734;2023-04-27T00:52:25;96958.94;;;8.57;100.00
55289;BME280;41154;45.394;5.734;2023-04-27T00:54:51;96961.84;;;8.55;100.00
55289;BME280;41154;45.394;5.734;2023-04-27T00:57:19;96958.34;;;8.43;100.00
55289;BME280;41154;45.394;5.734;2023-04-27T00:59:45;96959.59;;;8.23;100.00
55289;BME280;41154;45.394;5.734;2023-04-27T01:02:12;96964.38;;;8.09;100.00
55289;BME280;41154;45.394;5.734;2023-04-27T01:04:38;96958.78;;;7.99;100.00
55289;BME280;41154;45.394;5.734;2023-04-27T01:07:04;96966.34;;;8.02;100.00
55289;BME280;41154;45.394;5.734;2023-04-27T01:09:30;96962.88;;;8.14;100.00
55289;BME280;41154;45.394;5.734;2023-04-27T01:11:56;96961.25;;;7.89;100.00
55289;BME280;41154;45.394;5.734;2023-04-27T01:14:23;96961.38;;;7.70;100.00
55289;BME280;41154;45.394;5.734;2023-04-27T01:16:50;96955.69;;;7.79;100.00
55289;BME280;41154;45.394;5.734;2023-04-27T01:19:16;96951.03;;;7.74;100.00
55289;BME280;41154;45.394;5.734;2023-04-27T01:21:42;96940.03;;;7.70;100.00
55289;BME280;41154;45.394;5.734;2023-04-27T01:24:07;96942.91;;;7.92;100.00
55289;BME280;41154;45.394;5.734;2023-04-27T01:26:36;96932.59;;;7.72;100.00
55289;BME280;41154;45.394;5.734;2023-04-27T01:29:02;96940.59;;;7.84;100.00
55289;BME280;41154;45.394;5.734;2023-04-27T01:31:28;96932.81;;;7.71;100.00
55289;BME280;41154;45.394;5.734;2023-04-27T01:33:54;96929.13;;;7.72;100.00
55289;BME280;41154;45.394;5.734;2023-04-27T01:36:20;96925.41;;;7.73;100.00
55289;BME280;41154;45.394;5.734;2023-04-27T01:38:47;96943.03;;;7.86;100.00
55289;BME280;41154;45.394;5.734;2023-04-27T01:41:13;96939.91;;;7.77;100.00
55289;BME280;41154;45.394;5.734;2023-04-27T01:43:40;96953.59;;;7.69;100.00
55289;BME280;41154;45.394;5.734;2023-04-27T01:46:12;96963.56;;;7.62;100.00
55289;BME280;41154;45.394;5.734;2023-04-27T01:48:38;96965.19;;;7.51;100.00
55289;BME280;41154;45.394;5.734;2023-04-27T01:51:04;96966.38;;;7.67;100.00
55289;BME280;41154;45.394;5.734;2023-04-27T01:53:31;96964.28;;;7.45;100.00
55289;BME280;41154;45.394;5.734;2023-04-27T01:55:57;96974.38;;;7.55;100.00
55289;BME280;41154;45.394;5.734;2023-04-27T01:58:24;96979.13;;;7.41;100.00
55289;BME280;41154;45.394;5.734;2023-04-27T02:00:50;96976.44;;;7.41;100.00
55289;BME280;41154;45.394;5.734;2023-04-27T02:03:16;96987.47;;;7.45;100.00
55289;BME280;41154;45.394;5.734;2023-04-27T02:05:42;96981.59;;;7.54;100.00
55289;BME280;41154;45.394;5.734;2023-04-27T02:08:07;96984.44;;;7.41;100.00
55289;BME280;41154;45.394;5.734;2023-04-27T02:10:34;96979.69;;;7.31;100.00
55289;BME280;41154;45.394;5.734;2023-04-27T02:13:01;96980.03;;;7.35;100.00
55289;BME280;41154;45.394;5.734;2023-04-27T02:15:27;96981.28;;;7.20;100.00
55289;BME280;41154;45.394;5.734;2023-04-27T02:17:53;96984.91;;;7.26;100.00
55289;BME280;41154;45.394;5.734;2023-04-27T02:20:19;96987.81;;;7.25;100.00
55289;BME280;41154;45.394;5.734;2023-04-27T02:22:44;96985.81;;;7.32;100.00
55289;BME280;41154;45.394;5.734;2023-04-27T02:25:11;96989.28;;;7.20;100.00
55289;BME280;41154;45.394;5.734;2023-04-27T02:27:37;96981.09;;;7.34;100.00
55289;BME280;41154;45.394;5.734;2023-04-27T02:30:09;96978.75;;;7.26;100.00
55289;BME280;41154;45.394;5.734;2023-04-27T02:32:35;96980.16;;;7.28;100.00
55289;BME280;41154;45.394;5.734;2023-04-27T02:35:01;96984.44;;;7.29;100.00
55289;BME280;41154;45.394;5.734;2023-04-27T02:37:28;96974.50;;;7.72;100.00
55289;BME280;41154;45.394;5.734;2023-04-27T02:39:55;96976.34;;;7.83;100.00
55289;BME280;41154;45.394;5.734;2023-04-27T02:42:21;96985.91;;;7.79;100.00
55289;BME280;41154;45.394;5.734;2023-04-27T02:44:47;96984.72;;;7.75;100.00
55289;BME280;41154;45.394;5.734;2023-04-27T02:47:12;96994.00;;;7.72;100.00
55289;BME280;41154;45.394;5.734;2023-04-27T02:49:41;96985.66;;;7.69;100.00
55289;BME280;41154;45.394;5.734;2023-04-27T02:52:07;96991.31;;;7.96;100.00
55289;BME280;41154;45.394;5.734;2023-04-27T02:54:32;96979.47;;;8.04;100.00
55289;BME280;41154;45.394;5.734;2023-04-27T02:56:59;96982.41;;;7.90;100.00
55289;BME280;41154;45.394;5.734;2023-04-27T02:59:24;96982.63;;;7.77;100.00
55289;BME280;41154;45.394;5.734;2023-04-27T03:01:50;96986.00;;;7.84;100.00
55289;BME280;41154;45.394;5.734;2023-04-27T03:04:16;96979.25;;;7.94;100.00
55289;BME280;41154;45.394;5.734;2023-04-27T03:06:43;96977.41;;;7.82;100.00
55289;BME280;41154;45.394;5.734;2023-04-27T03:09:09;96992.03;;;7.80;100.00
55289;BME280;41154;45.394;5.734;2023-04-27T03:11:36;96982.84;;;7.52;100.00
55289;BME280;41154;45.394;5.734;2023-04-27T03:14:04;96987.69;;;7.31;100.00
55289;BME280;41154;45.394;5.734;2023-04-27T03:16:33;96992.91;;;7.38;100.00
55289;BME280;41154;45.394;5.734;2023-04-27T03:18:59;96987.13;;;7.29;100.00
55289;BME280;41154;45.394;5.734;2023-04-27T03:21:26;96980.38;;;7.27;100.00
55289;BME280;41154;45.394;5.734;2023-04-27T03:23:52;96986.97;;;7.24;100.00
55289;BME280;41154;45.394;5.734;2023-04-27T03:26:18;96971.81;;;7.25;100.00
55289;BME280;41154;45.394;5.734;2023-04-27T03:28:45;96975.41;;;7.42;100.00
55289;BME280;41154;45.394;5.734;2023-04-27T03:31:12;96973.06;;;7.22;100.00
55289;BME280;41154;45.394;5.734;2023-04-27T03:33:39;96964.56;;;7.01;100.00
55289;BME280;41154;45.394;5.734;2023-04-27T03:36:05;96968.97;;;7.08;100.00
55289;BME280;41154;45.394;5.734;2023-04-27T03:38:32;96971.75;;;7.13;100.00
55289;BME280;41154;45.394;5.734;2023-04-27T03:40:58;96963.16;;;6.99;100.00
55289;BME280;41154;45.394;5.734;2023-04-27T03:43:25;96964.78;;;7.12;100.00
55289;BME280;41154;45.394;5.734;2023-04-27T03:45:51;96964.16;;;6.98;100.00
55289;BME280;41154;45.394;5.734;2023-04-27T03:48:18;96966.47;;;6.82;100.00
55289;BME280;41154;45.394;5.734;2023-04-27T03:50:45;96961.66;;;7.03;100.00
55289;BME280;41154;45.394;5.734;2023-04-27T03:53:12;96958.25;;;6.96;100.00
55289;BME280;41154;45.394;5.734;2023-04-27T03:55:42;96959.06;;;6.84;100.00
55289;BME280;41154;45.394;5.734;2023-04-27T03:58:10;96963.56;;;6.84;100.00
55289;BME280;41154;45.394;5.734;2023-04-27T04:00:39;96962.13;;;6.70;100.00
55289;BME280;41154;45.394;5.734;2023-04-27T04:03:05;96952.06;;;6.72;100.00
55289;BME280;41154;45.394;5.734;2023-04-27T04:05:32;96953.63;;;6.61;100.00
55289;BME280;41154;45.394;5.734;2023-04-27T04:07:58;96961.34;;;6.51;100.00
55289;BME280;41154;45.394;5.734;2023-04-27T04:10:26;96948.66;;;6.64;100.00
55289;BME280;41154;45.394;5.734;2023-04-27T04:12:52;96954.88;;;6.58;100.00
55289;BME280;41154;45.394;5.734;2023-04-27T04:15:18;96950.09;;;6.48;100.00
55289;BME280;41154;45.394;5.734;2023-04-27T04:17:46;96966.34;;;6.59;100.00
55289;BME280;41154;45.394;5.734;2023-04-27T04:20:14;96965.25;;;6.48;100.00
55289;BME280;41154;45.394;5.734;2023-04-27T04:22:40;96971.19;;;6.50;100.00
55289;BME280;41154;45.394;5.734;2023-04-27T04:25:06;96974.56;;;6.57;100.00
55289;BME280;41154;45.394;5.734;2023-04-27T04:27:32;96980.13;;;6.56;100.00
55289;BME280;41154;45.394;5.734;2023-04-27T04:29:59;96971.63;;;6.65;100.00
55289;BME280;41154;45.394;5.734;2023-04-27T04:32:25;96979.91;;;6.57;100.00
55289;BME280;41154;45.394;5.734;2023-04-27T04:34:54;96982.19;;;6.72;100.00
55289;BME280;41154;45.394;5.734;2023-04-27T04:37:21;96977.81;;;6.78;100.00
55289;BME280;41154;45.394;5.734;2023-04-27T04:39:48;96990.41;;;6.71;100.00
55289;BME280;41154;45.394;5.734;2023-04-27T04:42:14;96985.84;;;6.59;100.00
55289;BME280;41154;45.394;5.734;2023-04-27T04:44:40;96990.84;;;6.68;100.00
55289;BME280;41154;45.394;5.734;2023-04-27T04:47:07;96996.28;;;6.61;100.00
55289;BME280;41154;45.394;5.734;2023-04-27T04:49:34;97002.63;;;6.60;100.00
55289;BME280;41154;45.394;5.734;2023-04-27T04:52:01;97004.09;;;6.74;100.00
55289;BME280;41154;45.394;5.734;2023-04-27T04:54:29;97004.03;;;6.81;100.00
55289;BME280;41154;45.394;5.734;2023-04-27T04:56:55;97005.72;;;6.75;100.00
55289;BME280;41154;45.394;5.734;2023-04-27T04:59:24;97000.50;;;6.69;100.00
55289;BME280;41154;45.394;5.734;2023-04-27T05:01:50;97003.72;;;6.71;100.00
55289;BME280;41154;45.394;5.734;2023-04-27T05:04:21;97000.88;;;6.54;100.00
55289;BME280;41154;45.394;5.734;2023-04-27T05:06:47;97009.44;;;6.56;100.00
55289;BME280;41154;45.394;5.734;2023-04-27T05:09:13;97005.22;;;6.48;100.00
55289;BME280;41154;45.394;5.734;2023-04-27T05:11:38;96999.31;;;6.46;100.00
55289;BME280;41154;45.394;5.734;2023-04-27T05:14:04;97000.88;;;6.54;100.00
55289;BME280;41154;45.394;5.734;2023-04-27T05:16:30;97003.97;;;6.51;100.00
55289;BME280;41154;45.394;5.734;2023-04-27T05:18:56;97009.22;;;6.57;100.00
55289;BME280;41154;45.394;5.734;2023-04-27T05:21:21;97011.97;;;6.51;100.00
55289;BME280;41154;45.394;5.734;2023-04-27T05:23:47;97011.38;;;6.67;100.00
55289;BME280;41154;45.394;5.734;2023-04-27T05:26:14;97018.94;;;6.70;100.00
55289;BME280;41154;45.394;5.734;2023-04-27T05:28:41;97019.44;;;6.60;100.00
55289;BME280;41154;45.394;5.734;2023-04-27T05:31:07;97006.66;;;6.51;100.00
55289;BME280;41154;45.394;5.734;2023-04-27T05:33:33;97015.28;;;6.64;100.00
55289;BME280;41154;45.394;5.734;2023-04-27T05:35:59;97015.31;;;6.46;100.00
55289;BME280;41154;45.394;5.734;2023-04-27T05:38:24;97020.06;;;6.44;100.00
55289;BME280;41154;45.394;5.734;2023-04-27T05:40:54;97012.19;;;6.30;100.00
55289;BME280;41154;45.394;5.734;2023-04-27T05:43:21;97015.84;;;6.55;100.00
55289;BME280;41154;45.394;5.734;2023-04-27T05:45:47;97008.91;;;6.84;100.00
55289;BME280;41154;45.394;5.734;2023-04-27T05:48:12;97013.06;;;6.80;100.00
55289;BME280;41154;45.394;5.734;2023-04-27T05:50:38;97022.47;;;6.82;100.00
55289;BME280;41154;45.394;5.734;2023-04-27T05:53:04;97018.88;;;6.89;100.00
55289;BME280;41154;45.394;5.734;2023-04-27T05:55:30;97024.56;;;7.23;100.00
55289;BME280;41154;45.394;5.734;2023-04-27T05:57:56;97011.88;;;7.72;100.00
55289;BME280;41154;45.394;5.734;2023-04-27T06:00:22;97022.50;;;11.14;100.00
55289;BME280;41154;45.394;5.734;2023-04-27T06:02:47;97015.78;;;13.61;100.00
55289;BME280;41154;45.394;5.734;2023-04-27T06:05:13;97018.25;;;14.85;100.00
55289;BME280;41154;45.394;5.734;2023-04-27T06:07:39;97022.88;;;16.81;96.27
55289;BME280;41154;45.394;5.734;2023-04-27T06:10:09;97032.91;;;17.04;92.51
55289;BME280;41154;45.394;5.734;2023-04-27T06:12:36;97032.81;;;16.91;91.81
55289;BME280;41154;45.394;5.734;2023-04-27T06:15:02;97040.78;;;17.25;91.36
55289;BME280;41154;45.394;5.734;2023-04-27T06:17:38;97044.06;;;17.79;88.17
55289;BME280;41154;45.394;5.734;2023-04-27T06:20:05;97050.69;;;17.54;87.95
55289;BME280;41154;45.394;5.734;2023-04-27T06:22:32;97049.84;;;18.24;86.59
55289;BME280;41154;45.394;5.734;2023-04-27T06:24:57;97035.13;;;20.72;72.49
55289;BME280;41154;45.394;5.734;2023-04-27T06:27:23;97036.28;;;18.24;81.25
55289;BME280;41154;45.394;5.734;2023-04-27T06:29:49;97046.06;;;20.18;73.84
55289;BME280;41154;45.394;5.734;2023-04-27T06:32:14;97039.16;;;21.94;66.92
55289;BME280;41154;45.394;5.734;2023-04-27T06:34:40;97035.00;;;21.61;64.78
55289;BME280;41154;45.394;5.734;2023-04-27T06:37:06;97041.44;;;18.40;75.10
55289;BME280;41154;45.394;5.734;2023-04-27T06:39:32;97039.84;;;19.22;74.71
55289;BME280;41154;45.394;5.734;2023-04-27T06:41:58;97036.41;;;20.43;68.77
55289;BME280;41154;45.394;5.734;2023-04-27T06:44:24;97036.50;;;19.98;69.45
55289;BME280;41154;45.394;5.734;2023-04-27T06:46:50;97038.88;;;20.85;66.47
55289;BME280;41154;45.394;5.734;2023-04-27T06:49:16;97028.81;;;20.00;70.10
55289;BME280;41154;45.394;5.734;2023-04-27T06:51:42;97024.13;;;18.77;76.38
55289;BME280;41154;45.394;5.734;2023-04-27T06:54:07;97019.91;;;20.40;71.27
55289;BME280;41154;45.394;5.734;2023-04-27T06:56:33;97019.03;;;21.02;67.79
55289;BME280;41154;45.394;5.734;2023-04-27T06:58:58;97022.22;;;21.04;62.90
55289;BME280;41154;45.394;5.734;2023-04-27T07:01:24;97015.81;;;22.14;61.28
55289;BME280;41154;45.394;5.734;2023-04-27T07:03:50;97021.44;;;21.04;67.64
55289;BME280;41154;45.394;5.734;2023-04-27T07:06:16;97019.41;;;21.44;65.26
55289;BME280;41154;45.394;5.734;2023-04-27T07:08:42;97012.00;;;21.36;68.42
55289;BME280;41154;45.394;5.734;2023-04-27T07:11:08;97008.44;;;21.09;63.24
55289;BME280;41154;45.394;5.734;2023-04-27T07:13:33;97007.94;;;20.58;63.39
55289;BME280;41154;45.394;5.734;2023-04-27T07:15:59;97019.22;;;21.32;62.69
55289;BME280;41154;45.394;5.734;2023-04-27T07:18:25;97003.34;;;21.86;61.51
55289;BME280;41154;45.394;5.734;2023-04-27T07:20:53;97005.72;;;20.60;65.45
55289;BME280;41154;45.394;5.734;2023-04-27T07:23:19;97001.59;;;23.57;56.52
55289;BME280;41154;45.394;5.734;2023-04-27T07:25:45;96996.13;;;22.55;58.05
55289;BME280;41154;45.394;5.734;2023-04-27T07:28:11;97011.13;;;22.79;59.95
55289;BME280;41154;45.394;5.734;2023-04-27T07:30:37;96996.31;;;26.08;49.90
55289;BME280;41154;45.394;5.734;2023-04-27T07:33:03;97006.13;;;25.40;50.04
55289;BME280;41154;45.394;5.734;2023-04-27T07:35:29;97006.63;;;22.36;57.75
55289;BME280;41154;45.394;5.734;2023-04-27T07:37:56;97003.91;;;22.74;59.13
55289;BME280;41154;45.394;5.734;2023-04-27T07:40:22;96995.06;;;23.49;55.50
55289;BME280;41154;45.394;5.734;2023-04-27T07:42:49;96985.03;;;24.66;52.55
55289;BME280;41154;45.394;5.734;2023-04-27T07:45:15;96981.56;;;25.31;49.05
55289;BME280;41154;45.394;5.734;2023-04-27T07:47:42;96988.84;;;25.80;45.35
55289;BME280;41154;45.394;5.734;2023-04-27T07:50:09;96986.75;;;22.09;53.48
55289;BME280;41154;45.394;5.734;2023-04-27T07:52:35;96979.44;;;21.83;55.86
55289;BME280;41154;45.394;5.734;2023-04-27T07:55:02;96978.97;;;22.37;54.14
55289;BME280;41154;45.394;5.734;2023-04-27T07:57:28;96978.31;;;23.51;52.95
55289;BME280;41154;45.394;5.734;2023-04-27T07:59:54;96971.31;;;26.61;44.61
55289;BME280;41154;45.394;5.734;2023-04-27T08:02:19;96977.59;;;24.91;47.65
55289;BME280;41154;45.394;5.734;2023-04-27T08:04:46;96971.03;;;25.21;51.40
55289;BME280;41154;45.394;5.734;2023-04-27T08:07:11;96975.66;;;25.86;46.67
55289;BME280;41154;45.394;5.734;2023-04-27T08:09:37;96965.28;;;26.07;46.16
55289;BME280;41154;45.394;5.734;2023-04-27T08:12:03;96967.09;;;25.06;47.88
55289;BME280;41154;45.394;5.734;2023-04-27T08:14:29;96967.06;;;23.65;49.67
55289;BME280;41154;45.394;5.734;2023-04-27T08:16:54;96967.59;;;25.36;53.76
55289;BME280;41154;45.394;5.734;2023-04-27T08:19:20;96958.88;;;25.75;45.56
55289;BME280;41154;45.394;5.734;2023-04-27T08:21:46;96957.22;;;25.86;44.21
55289;BME280;41154;45.394;5.734;2023-04-27T08:24:11;96964.06;;;25.36;46.00
55289;BME280;41154;45.394;5.734;2023-04-27T08:26:37;96963.31;;;24.49;49.08
55289;BME280;41154;45.394;5.734;2023-04-27T08:29:03;96961.53;;;25.71;47.46
55289;BME280;41154;45.394;5.734;2023-04-27T08:31:29;96952.97;;;28.60;38.96
55289;BME280;41154;45.394;5.734;2023-04-27T08:33:55;96967.94;;;27.35;40.00
55289;BME280;41154;45.394;5.734;2023-04-27T08:36:22;96957.19;;;25.70;47.55
55289;BME280;41154;45.394;5.734;2023-04-27T08:38:53;96962.56;;;25.95;48.46
55289;BME280;41154;45.394;5.734;2023-04-27T08:41:22;96951.81;;;26.50;40.18
55289;BME280;41154;45.394;5.734;2023-04-27T08:43:51;96951.97;;;26.41;40.47
55289;BME280;41154;45.394;5.734;2023-04-27T08:46:19;96936.78;;;28.12;37.79
55289;BME280;41154;45.394;5.734;2023-04-27T08:48:48;96944.38;;;28.65;35.67
55289;BME280;41154;45.394;5.734;2023-04-27T08:51:14;96940.34;;;26.64;40.49
55289;BME280;41154;45.394;5.734;2023-04-27T08:53:55;96941.34;;;25.79;45.40
55289;BME280;41154;45.394;5.734;2023-04-27T08:56:23;96943.81;;;25.40;45.37
55289;BME280;41154;45.394;5.734;2023-04-27T08:58:50;96950.34;;;25.36;43.72
55289;BME280;41154;45.394;5.734;2023-04-27T09:01:16;96944.81;;;24.83;44.31
55289;BME280;41154;45.394;5.734;2023-04-27T09:03:42;96949.88;;;27.76;38.75
55289;BME280;41154;45.394;5.734;2023-04-27T09:06:11;96950.22;;;24.67;42.50
55289;BME280;41154;45.394;5.734;2023-04-27T09:08:44;96952.75;;;23.47;45.56
55289;BME280;41154;45.394;5.734;2023-04-27T09:11:14;96945.38;;;26.94;41.23
55289;BME280;41154;45.394;5.734;2023-04-27T09:13:42;96944.47;;;27.05;42.18
55289;BME280;41154;45.394;5.734;2023-04-27T09:16:12;96940.94;;;28.26;38.28
55289;BME280;41154;45.394;5.734;2023-04-27T09:18:43;96944.53;;;26.26;40.68
55289;BME280;41154;45.394;5.734;2023-04-27T09:21:09;96945.66;;;26.88;37.84
55289;BME280;41154;45.394;5.734;2023-04-27T09:23:37;96947.50;;;23.75;43.93
55289;BME280;41154;45.394;5.734;2023-04-27T09:26:04;96944.03;;;22.82;46.80
55289;BME280;41154;45.394;5.734;2023-04-27T09:28:37;96950.09;;;23.17;49.95
55289;BME280;41154;45.394;5.734;2023-04-27T09:31:03;96940.19;;;23.04;49.34
55289;BME280;41154;45.394;5.734;2023-04-27T09:33:34;96945.75;;;23.16;48.35
55289;BME280;41154;45.394;5.734;2023-04-27T09:36:04;96950.31;;;22.52;51.67
55289;BME280;41154;45.394;5.734;2023-04-27T09:38:31;96951.16;;;21.79;51.31
55289;BME280;41154;45.394;5.734;2023-04-27T09:40:57;96951.97;;;22.36;53.32
55289;BME280;41154;45.394;5.734;2023-04-27T09:43:23;96946.63;;;21.92;50.85
55289;BME280;41154;45.394;5.734;2023-04-27T09:45:50;96952.06;;;22.78;56.56
55289;BME280;41154;45.394;5.734;2023-04-27T09:48:16;96953.22;;;23.28;48.56
55289;BME280;41154;45.394;5.734;2023-04-27T09:50:44;96963.22;;;22.73;50.31
55289;BME280;41154;45.394;5.734;2023-04-27T09:53:12;96958.63;;;22.86;50.99
55289;BME280;41154;45.394;5.734;2023-04-27T09:55:41;96953.53;;;23.26;50.62
55289;BME280;41154;45.394;5.734;2023-04-27T10:04:12;96941.25;;;23.32;52.07
55289;BME280;41154;45.394;5.734;2023-04-27T10:09:36;96931.50;;;22.03;53.43
55289;BME280;41154;45.394;5.734;2023-04-27T10:12:33;96936.28;;;21.50;56.10
55289;BME280;41154;45.394;5.734;2023-04-27T10:15:14;96936.53;;;21.93;55.29
55289;BME280;41154;45.394;5.734;2023-04-27T10:17:50;96943.41;;;22.46;59.06
55289;BME280;41154;45.394;5.734;2023-04-27T10:20:35;96942.47;;;21.86;55.30
55289;BME280;41154;45.394;5.734;2023-04-27T10:23:02;96935.44;;;22.62;57.44
55289;BME280;41154;45.394;5.734;2023-04-27T10:25:29;96939.41;;;23.45;55.21
55289;BME280;41154;45.394;5.734;2023-04-27T10:27:56;96929.19;;;23.55;50.77
55289;BME280;41154;45.394;5.734;2023-04-27T10:30:25;96940.19;;;23.25;51.55
55289;BME280;41154;45.394;5.734;2023-04-27T10:32:55;96941.84;;;22.36;52.79
55289;BME280;41154;45.394;5.734;2023-04-27T10:35:37;96938.47;;;21.66;55.45
55289;BME280;41154;45.394;5.734;2023-04-27T10:40:36;96932.13;;;22.09;54.41
55289;BME280;41154;45.394;5.734;2023-04-27T10:43:16;96924.84;;;21.48;57.42
55289;BME280;41154;45.394;5.734;2023-04-27T10:45:43;96920.78;;;22.37;54.21
55289;BME280;41154;45.394;5.734;2023-04-27T10:48:12;96931.44;;;21.47;58.67
55289;BME280;41154;45.394;5.734;2023-04-27T10:50:39;96939.78;;;21.42;60.17
55289;BME280;41154;45.394;5.734;2023-04-27T10:53:06;96929.50;;;22.30;55.61
55289;BME280;41154;45.394;5.734;2023-04-27T10:55:33;96919.88;;;22.63;53.74
55289;BME280;41154;45.394;5.734;2023-04-27T10:57:59;96920.16;;;22.91;53.94
55289;BME280;41154;45.394;5.734;2023-04-27T11:00:28;96921.50;;;23.06;53.43
55289;BME280;41154;45.394;5.734;2023-04-27T11:02:55;96926.63;;;21.44;54.12
55289;BME280;41154;45.394;5.734;2023-04-27T11:05:24;96921.63;;;22.20;53.99
55289;BME280;41154;45.394;5.734;2023-04-27T11:08:06;96936.88;;;21.30;56.29
55289;BME280;41154;45.394;5.734;2023-04-27T11:10:33;96931.25;;;21.00;59.34
55289;BME280;41154;45.394;5.734;2023-04-27T11:15:45;96924.38;;;21.29;57.01
55289;BME280;41154;45.394;5.734;2023-04-27T11:18:12;96926.13;;;20.90;57.45
55289;BME280;41154;45.394;5.734;2023-04-27T11:20:38;96914.59;;;21.36;55.78
55289;BME280;41154;45.394;5.734;2023-04-27T11:23:03;96923.56;;;21.63;57.45
55289;BME280;41154;45.394;5.734;2023-04-27T11:25:30;96912.31;;;21.30;59.52
55289;BME280;41154;45.394;5.734;2023-04-27T11:27:57;96912.34;;;21.39;56.27
55289;BME280;41154;45.394;5.734;2023-04-27T11:30:23;96917.78;;;21.30;56.77
55289;BME280;41154;45.394;5.734;2023-04-27T11:32:49;96929.53;;;21.57;59.91
55289;BME280;41154;45.394;5.734;2023-04-27T11:35:17;96917.16;;;21.07;59.87
55289;BME280;41154;45.394;5.734;2023-04-27T11:37:43;96919.53;;;20.91;58.32
55289;BME280;41154;45.394;5.734;2023-04-27T11:40:12;96924.28;;;20.59;59.51
55289;BME280;41154;45.394;5.734;2023-04-27T11:42:38;96915.22;;;20.98;62.14
55289;BME280;41154;45.394;5.734;2023-04-27T11:45:10;96917.50;;;21.05;59.31
55289;BME280;41154;45.394;5.734;2023-04-27T11:47:36;96921.59;;;20.68;61.68
55289;BME280;41154;45.394;5.734;2023-04-27T11:50:04;96913.78;;;21.01;61.45
55289;BME280;41154;45.394;5.734;2023-04-27T11:52:34;96915.56;;;21.58;59.64
55289;BME280;41154;45.394;5.734;2023-04-27T11:55:01;96914.41;;;20.89;59.25
55289;BME280;41154;45.394;5.734;2023-04-27T11:57:30;96910.91;;;21.41;62.05
55289;BME280;41154;45.394;5.734;2023-04-27T11:59:57;96901.91;;;21.49;60.88
55289;BME280;41154;45.394;5.734;2023-04-27T12:02:25;96903.09;;;21.96;59.47
55289;BME280;41154;45.394;5.734;2023-04-27T12:04:51;96913.13;;;21.48;60.66
55289;BME280;41154;45.394;5.734;2023-04-27T12:07:17;96905.69;;;21.83;58.35
55289;BME280;41154;45.394;5.734;2023-04-27T12:09:44;96914.03;;;20.64;60.22
55289;BME280;41154;45.394;5.734;2023-04-27T12:12:10;96910.91;;;21.15;60.03
55289;BME280;41154;45.394;5.734;2023-04-27T12:14:37;96915.22;;;20.98;61.90
55289;BME280;41154;45.394;5.734;2023-04-27T12:17:03;96909.13;;;20.84;62.12
55289;BME280;41154;45.394;5.734;2023-04-27T12:19:28;96911.84;;;21.28;59.01
55289;BME280;41154;45.394;5.734;2023-04-27T12:21:56;96916.59;;;20.61;62.18
55289;BME280;41154;45.394;5.734;2023-04-27T12:24:23;96914.06;;;20.73;61.08
55289;BME280;41154;45.394;5.734;2023-04-27T12:26:48;96906.88;;;20.95;61.42
55289;BME280;41154;45.394;5.734;2023-04-27T12:29:16;96903.34;;;20.86;59.89
55289;BME280;41154;45.394;5.734;2023-04-27T12:31:42;96914.28;;;20.94;60.06
55289;BME280;41154;45.394;5.734;2023-04-27T12:34:08;96914.22;;;20.68;60.88
55289;BME280;41154;45.394;5.734;2023-04-27T12:36:33;96923.91;;;20.43;61.92
55289;BME280;41154;45.394;5.734;2023-04-27T12:39:12;96907.84;;;20.99;58.79
55289;BME280;41154;45.394;5.734;2023-04-27T12:41:39;96906.88;;;21.39;59.95
55289;BME280;41154;45.394;5.734;2023-04-27T12:44:05;96907.97;;;20.76;60.18
55289;BME280;41154;45.394;5.734;2023-04-27T12:46:30;96900.94;;;21.28;61.80
55289;BME280;41154;45.394;5.734;2023-04-27T12:48:56;96906.59;;;21.49;60.15
55289;BME280;41154;45.394;5.734;2023-04-27T12:51:22;96907.84;;;21.34;62.09
55289;BME280;41154;45.394;5.734;2023-04-27T12:53:48;96903.81;;;21.58;59.53
55289;BME280;41154;45.394;5.734;2023-04-27T12:56:14;96918.41;;;21.70;59.26
55289;BME280;41154;45.394;5.734;2023-04-27T12:58:40;96906.72;;;21.52;63.86
55289;BME280;41154;45.394;5.734;2023-04-27T13:01:06;96905.28;;;21.29;62.61
55289;BME280;41154;45.394;5.734;2023-04-27T13:03:43;96904.78;;;21.62;59.09
55289;BME280;41154;45.394;5.734;2023-04-27T13:06:09;96908.31;;;21.18;60.85
55289;BME280;41154;45.394;5.734;2023-04-27T13:08:36;96906.91;;;21.21;62.52
55289;BME280;41154;45.394;5.734;2023-04-27T13:11:02;96894.06;;;22.04;58.03
55289;BME280;41154;45.394;5.734;2023-04-27T13:13:28;96894.38;;;22.11;58.05